ACA352 CYYT-EGLL
Flight info
| Callsign | ACA352 |
|---|---|
| Flight time | N/A |
| Altitude | 27000 |
| Route | YYT DCT NICSO/M083F270 DCT 48N050W 50N040W 52N030W 54N020W DCT DOGAL DCT BEXET/N0491F270 DCT CON DCT OLAPO DCT GMN DCT BOFUM Q37 MALUD Q38 NUGRA |
| Aircraft | B78X/H-SDE1E2E3FGHIJ2J3J4J5M1RWXY/LB1D1 |
Departure
| Time | 2026-04-25 16:48 |
|---|---|
| Airport | St. John's International Airport (CYYT) |
Arrival
| Time | N/A |
|---|---|
| Airport | London Heathrow Airport (EGLL) |
| Time | Latitude | Longitude | Altitude | Speed | Heading |
|---|---|---|---|---|---|
| 2026-04-25 16:12 | 47.61362 | -52.74190 | 482 ft | 0 kts | 233° |
| 2026-04-25 16:36 | 47.61374 | -52.74168 | 473 ft | 2 kts | 239° |
| 2026-04-25 16:36 | 47.61382 | -52.74145 | 473 ft | 2 kts | 173° |
| 2026-04-25 16:37 | 47.61382 | -52.74129 | 473 ft | 3 kts | 137° |
| 2026-04-25 16:37 | 47.61390 | -52.74142 | 473 ft | 2 kts | 326° |
| 2026-04-25 16:37 | 47.61398 | -52.74151 | 473 ft | 5 kts | 325° |
| 2026-04-25 16:37 | 47.61416 | -52.74171 | 474 ft | 5 kts | 322° |
| 2026-04-25 16:38 | 47.61434 | -52.74212 | 473 ft | 3 kts | 301° |
| 2026-04-25 16:38 | 47.61435 | -52.74216 | 475 ft | 1 kts | 301° |
| 2026-04-25 16:38 | 47.61440 | -52.74228 | 475 ft | 2 kts | 302° |
| 2026-04-25 16:38 | 47.61449 | -52.74249 | 474 ft | 3 kts | 302° |
| 2026-04-25 16:39 | 47.61461 | -52.74277 | 479 ft | 0 kts | 302° |
| 2026-04-25 16:40 | 47.61462 | -52.74278 | 479 ft | 0 kts | 302° |
| 2026-04-25 16:41 | 47.61464 | -52.74288 | 475 ft | 1 kts | 292° |
| 2026-04-25 16:41 | 47.61469 | -52.74308 | 476 ft | 5 kts | 290° |
| 2026-04-25 16:41 | 47.61491 | -52.74349 | 476 ft | 1 kts | 346° |
| 2026-04-25 16:42 | 47.61506 | -52.74342 | 476 ft | 4 kts | 15° |
| 2026-04-25 16:42 | 47.61541 | -52.74310 | 474 ft | 8 kts | 43° |
| 2026-04-25 16:42 | 47.61589 | -52.74230 | 474 ft | 13 kts | 48° |
| 2026-04-25 16:42 | 47.61621 | -52.74178 | 479 ft | 2 kts | 47° |
| 2026-04-25 16:43 | 47.61643 | -52.74142 | 477 ft | 8 kts | 47° |
| 2026-04-25 16:43 | 47.61698 | -52.74093 | 476 ft | 10 kts | 3° |
| 2026-04-25 16:43 | 47.61772 | -52.74143 | 479 ft | 14 kts | 327° |
| 2026-04-25 16:43 | 47.61860 | -52.74256 | 477 ft | 19 kts | 319° |
| 2026-04-25 16:44 | 47.61972 | -52.74397 | 481 ft | 23 kts | 320° |
| 2026-04-25 16:44 | 47.62104 | -52.74560 | 480 ft | 26 kts | 321° |
| 2026-04-25 16:44 | 47.62247 | -52.74742 | 485 ft | 29 kts | 320° |
| 2026-04-25 16:44 | 47.62406 | -52.74948 | 484 ft | 29 kts | 319° |
| 2026-04-25 16:45 | 47.62458 | -52.75049 | 483 ft | 12 kts | 285° |
| 2026-04-25 16:45 | 47.62458 | -52.75192 | 486 ft | 16 kts | 266° |
| 2026-04-25 16:45 | 47.62448 | -52.75394 | 481 ft | 23 kts | 265° |
| 2026-04-25 16:45 | 47.62435 | -52.75673 | 486 ft | 31 kts | 266° |
| 2026-04-25 16:46 | 47.62418 | -52.76054 | 490 ft | 43 kts | 265° |
| 2026-04-25 16:46 | 47.62396 | -52.76548 | 497 ft | 50 kts | 265° |
| 2026-04-25 16:46 | 47.62354 | -52.76962 | 486 ft | 37 kts | 248° |
| 2026-04-25 16:46 | 47.62341 | -52.77132 | 488 ft | 12 kts | 303° |
| 2026-04-25 16:47 | 47.62370 | -52.77145 | 486 ft | 1 kts | 17° |
| 2026-04-25 16:47 | 47.62375 | -52.77129 | 492 ft | 1 kts | 65° |
| 2026-04-25 16:47 | 47.62378 | -52.77087 | 487 ft | 10 kts | 81° |
| 2026-04-25 16:47 | 47.62402 | -52.76582 | 495 ft | 95 kts | 86° |
| 2026-04-25 16:48 | 47.62433 | -52.75211 | 662 ft | 159 kts | 89° |
| 2026-04-25 16:48 | 47.62464 | -52.73357 | 1090 ft | 190 kts | 80° |
| 2026-04-25 16:48 | 47.62498 | -52.71304 | 1805 ft | 208 kts | 82° |
| 2026-04-25 16:48 | 47.62462 | -52.69090 | 2685 ft | 221 kts | 84° |
| 2026-04-25 16:49 | 47.62351 | -52.66767 | 3637 ft | 233 kts | 94° |
| 2026-04-25 16:49 | 47.61885 | -52.64394 | 4706 ft | 253 kts | 101° |
| 2026-04-25 16:49 | 47.61335 | -52.61854 | 5827 ft | 266 kts | 99° |
| 2026-04-25 16:49 | 47.60833 | -52.59115 | 6754 ft | 284 kts | 98° |
| 2026-04-25 16:50 | 47.60327 | -52.56177 | 7770 ft | 299 kts | 99° |
| 2026-04-25 16:50 | 47.59782 | -52.53149 | 8933 ft | 309 kts | 100° |
| 2026-04-25 16:50 | 47.59208 | -52.50037 | 10068 ft | 315 kts | 101° |
| 2026-04-25 16:50 | 47.58634 | -52.46901 | 11201 ft | 320 kts | 100° |
| 2026-04-25 16:51 | 47.58047 | -52.43658 | 12399 ft | 325 kts | 100° |
| 2026-04-25 16:51 | 47.57456 | -52.40406 | 13504 ft | 330 kts | 99° |
| 2026-04-25 16:51 | 47.56851 | -52.37099 | 14531 ft | 335 kts | 99° |
| 2026-04-25 16:51 | 47.56445 | -52.34874 | 15110 ft | 343 kts | 99° |
| 2026-04-25 16:52 | 47.55595 | -52.30213 | 16073 ft | 361 kts | 99° |
| 2026-04-25 16:52 | 47.54924 | -52.26574 | 16967 ft | 370 kts | 99° |
| 2026-04-25 16:52 | 47.54238 | -52.22860 | 17900 ft | 376 kts | 99° |
| 2026-04-25 16:52 | 47.53544 | -52.19092 | 18557 ft | 387 kts | 98° |
| 2026-04-25 16:53 | 47.52077 | -52.11127 | 19502 ft | 414 kts | 98° |
| 2026-04-25 16:53 | 47.51302 | -52.06996 | 20389 ft | 413 kts | 98° |
| 2026-04-25 16:53 | 47.50540 | -52.02934 | 21482 ft | 409 kts | 97° |
| 2026-04-25 16:54 | 47.50123 | -51.98847 | 22410 ft | 395 kts | 82° |
| 2026-04-25 16:54 | 47.50496 | -51.94913 | 23175 ft | 382 kts | 66° |
| 2026-04-25 16:54 | 47.51523 | -51.91320 | 23814 ft | 378 kts | 57° |
| 2026-04-25 16:54 | 47.52770 | -51.87944 | 24404 ft | 380 kts | 55° |
| 2026-04-25 16:55 | 47.54037 | -51.84482 | 25013 ft | 385 kts | 58° |
| 2026-04-25 16:55 | 47.55142 | -51.80777 | 25596 ft | 392 kts | 63° |
| 2026-04-25 16:55 | 47.56023 | -51.76972 | 26113 ft | 399 kts | 65° |
| 2026-04-25 16:55 | 47.56935 | -51.73072 | 26270 ft | 400 kts | 63° |
| 2026-04-25 16:56 | 47.57945 | -51.69270 | 26269 ft | 396 kts | 62° |
| 2026-04-25 16:56 | 47.58970 | -51.65490 | 26332 ft | 398 kts | 63° |
| 2026-04-25 16:56 | 47.59952 | -51.61643 | 26279 ft | 396 kts | 63° |
| 2026-04-25 16:56 | 47.60918 | -51.57790 | 26280 ft | 406 kts | 63° |
| 2026-04-25 16:57 | 47.61939 | -51.53823 | 26286 ft | 422 kts | 63° |
| 2026-04-25 16:57 | 47.62648 | -51.51089 | 26287 ft | 432 kts | 63° |
| 2026-04-25 16:57 | 47.64096 | -51.45429 | 26286 ft | 451 kts | 64° |
| 2026-04-25 16:57 | 47.65215 | -51.41003 | 26276 ft | 464 kts | 64° |
| 2026-04-25 16:58 | 47.66364 | -51.36478 | 26269 ft | 474 kts | 64° |
| 2026-04-25 16:58 | 47.67539 | -51.31857 | 26273 ft | 479 kts | 64° |
| 2026-04-25 16:58 | 47.68707 | -51.27238 | 26269 ft | 477 kts | 64° |
| 2026-04-25 16:58 | 47.69889 | -51.22551 | 26269 ft | 478 kts | 64° |
| 2026-04-25 16:59 | 47.71039 | -51.17997 | 26264 ft | 477 kts | 64° |
| 2026-04-25 16:59 | 47.72217 | -51.13321 | 26263 ft | 477 kts | 64° |
| 2026-04-25 16:59 | 47.73356 | -51.08784 | 26256 ft | 477 kts | 64° |
| 2026-04-25 16:59 | 47.74513 | -51.04169 | 26257 ft | 476 kts | 65° |
| 2026-04-25 17:00 | 47.75671 | -50.99538 | 26251 ft | 477 kts | 65° |
| 2026-04-25 17:00 | 47.76830 | -50.94898 | 26250 ft | 477 kts | 65° |
| 2026-04-25 17:00 | 47.77979 | -50.90286 | 26249 ft | 477 kts | 65° |
| 2026-04-25 17:00 | 47.79129 | -50.85661 | 26247 ft | 477 kts | 65° |
| 2026-04-25 17:01 | 47.80278 | -50.81030 | 26250 ft | 477 kts | 65° |
| 2026-04-25 17:01 | 47.81428 | -50.76389 | 26248 ft | 477 kts | 65° |
| 2026-04-25 17:01 | 47.82563 | -50.71792 | 26233 ft | 482 kts | 65° |
| 2026-04-25 17:01 | 47.83731 | -50.67056 | 26226 ft | 480 kts | 66° |
| 2026-04-25 17:02 | 47.84868 | -50.62442 | 26238 ft | 484 kts | 66° |
| 2026-04-25 17:02 | 47.86024 | -50.57736 | 26238 ft | 484 kts | 66° |
| 2026-04-25 17:02 | 47.87176 | -50.53024 | 26241 ft | 484 kts | 66° |
| 2026-04-25 17:02 | 47.88333 | -50.48287 | 26236 ft | 484 kts | 66° |
| 2026-04-25 17:03 | 47.89480 | -50.43596 | 26238 ft | 484 kts | 66° |
| 2026-04-25 17:03 | 47.90626 | -50.38891 | 26238 ft | 484 kts | 66° |
| 2026-04-25 17:03 | 47.91785 | -50.34118 | 26224 ft | 485 kts | 66° |
| 2026-04-25 17:03 | 47.92935 | -50.29373 | 26229 ft | 485 kts | 66° |
| 2026-04-25 17:04 | 47.94078 | -50.24647 | 26228 ft | 485 kts | 66° |
| 2026-04-25 17:04 | 47.95223 | -50.19913 | 26236 ft | 486 kts | 67° |
| 2026-04-25 17:04 | 47.96364 | -50.15175 | 26237 ft | 486 kts | 67° |
| 2026-04-25 17:04 | 47.97501 | -50.10436 | 26234 ft | 486 kts | 67° |
| 2026-04-25 17:05 | 47.98628 | -50.05739 | 26237 ft | 486 kts | 67° |
| 2026-04-25 17:05 | 48.00961 | -49.96277 | 26227 ft | 486 kts | 66° |
| 2026-04-25 17:05 | 48.02145 | -49.91552 | 26232 ft | 485 kts | 66° |
| 2026-04-25 17:06 | 48.03315 | -49.86816 | 26229 ft | 486 kts | 66° |
| 2026-04-25 17:06 | 48.04504 | -49.82080 | 26256 ft | 485 kts | 66° |
| 2026-04-25 17:06 | 48.05711 | -49.77344 | 26230 ft | 494 kts | 68° |
| 2026-04-25 17:06 | 48.06924 | -49.72474 | 26237 ft | 501 kts | 69° |
| 2026-04-25 17:07 | 48.08127 | -49.67598 | 26236 ft | 502 kts | 69° |
| 2026-04-25 17:07 | 48.09348 | -49.62691 | 26231 ft | 501 kts | 68° |
| 2026-04-25 17:07 | 48.10568 | -49.57809 | 26234 ft | 503 kts | 69° |
| 2026-04-25 17:07 | 48.11785 | -49.52903 | 26241 ft | 502 kts | 69° |
| 2026-04-25 17:08 | 48.12991 | -49.48008 | 26242 ft | 502 kts | 69° |
| 2026-04-25 17:08 | 48.14201 | -49.43095 | 26242 ft | 502 kts | 69° |
| 2026-04-25 17:08 | 48.15414 | -49.38179 | 26243 ft | 503 kts | 69° |
| 2026-04-25 17:08 | 48.16614 | -49.33305 | 26245 ft | 505 kts | 69° |
| 2026-04-25 17:09 | 48.17832 | -49.28317 | 26243 ft | 505 kts | 69° |
| 2026-04-25 17:09 | 48.19024 | -49.23435 | 26242 ft | 504 kts | 69° |
| 2026-04-25 17:09 | 48.20227 | -49.18512 | 26250 ft | 504 kts | 69° |
| 2026-04-25 17:09 | 48.21433 | -49.13563 | 26251 ft | 504 kts | 69° |
| 2026-04-25 17:10 | 48.22629 | -49.08634 | 26253 ft | 504 kts | 69° |
| 2026-04-25 17:10 | 48.23829 | -49.03681 | 26259 ft | 504 kts | 69° |
| 2026-04-25 17:10 | 48.25027 | -48.98727 | 26259 ft | 504 kts | 69° |
| 2026-04-25 17:10 | 48.26224 | -48.93770 | 26259 ft | 504 kts | 70° |
| 2026-04-25 17:11 | 48.27417 | -48.88810 | 26269 ft | 504 kts | 70° |
| 2026-04-25 17:11 | 48.28592 | -48.83918 | 26284 ft | 504 kts | 70° |
| 2026-04-25 17:11 | 48.29783 | -48.78947 | 26269 ft | 502 kts | 70° |
| 2026-04-25 17:11 | 48.30966 | -48.73999 | 26270 ft | 505 kts | 70° |
| 2026-04-25 17:12 | 48.32144 | -48.69060 | 26269 ft | 502 kts | 70° |
| 2026-04-25 17:12 | 48.33327 | -48.64091 | 26268 ft | 503 kts | 70° |
| 2026-04-25 17:12 | 48.34500 | -48.59153 | 26264 ft | 504 kts | 70° |
| 2026-04-25 17:12 | 48.35679 | -48.54185 | 26273 ft | 497 kts | 71° |
| 2026-04-25 17:13 | 48.36839 | -48.49270 | 26269 ft | 501 kts | 71° |
| 2026-04-25 17:13 | 48.37220 | -48.47654 | 26271 ft | 500 kts | 71° |
| 2026-04-25 17:13 | 48.39164 | -48.39397 | 26273 ft | 499 kts | 71° |
| 2026-04-25 17:13 | 48.40321 | -48.34476 | 26283 ft | 501 kts | 71° |
| 2026-04-25 17:14 | 48.41478 | -48.29537 | 26279 ft | 497 kts | 71° |
| 2026-04-25 17:14 | 48.42614 | -48.24675 | 26281 ft | 502 kts | 71° |
| 2026-04-25 17:14 | 48.43766 | -48.19732 | 26289 ft | 499 kts | 71° |
| 2026-04-25 17:14 | 48.44917 | -48.14785 | 26292 ft | 499 kts | 71° |
| 2026-04-25 17:15 | 48.46065 | -48.09845 | 26286 ft | 500 kts | 71° |
| 2026-04-25 17:15 | 48.47207 | -48.04913 | 26298 ft | 495 kts | 71° |
| 2026-04-25 17:15 | 48.48344 | -47.99993 | 26299 ft | 499 kts | 71° |
| 2026-04-25 17:15 | 48.49476 | -47.95076 | 26296 ft | 497 kts | 71° |
| 2026-04-25 17:16 | 48.50617 | -47.90116 | 26301 ft | 497 kts | 71° |
| 2026-04-25 17:16 | 48.51733 | -47.85255 | 26308 ft | 499 kts | 71° |
| 2026-04-25 17:16 | 48.52873 | -47.80282 | 26315 ft | 506 kts | 73° |
| 2026-04-25 17:16 | 48.54031 | -47.75205 | 26318 ft | 511 kts | 72° |